Ana Sayfa
METAR-TAF:

METAR-TAF

Havaalanları :

Bamako, Mali

Enlem: 12-32N, Boylam: 007-57W, yükseklik: 380 m

Güncel hava durumu gözlemi

Rapor saat 13:30 UTC de 39 dakika önce yapıldı.
Rüzgar doğudan 9 kt, kuzey/kuzeydoğu ve güneydoğu arasında değişken
Sıcaklık 37°C
Nem 9%
Basınç 1012 hPa
Görüş mesafesi 10 km veya daha fazla
1500 m altında bulut yok ve kümülonimbus yok

METAR: GABS 221330Z 10009KT 030V140 CAVOK 37/M01 Q1012 NOSIG

Saat: 14:09 (14:09 UTC)

Tahmin

Rapor saat 11:28 UTC de 2 saat ve 41 dakika önce yapıldı.
Ayın 22'si saat 12 UTC'den ayın 23'si saat 18 UTC'ye kadar geçerli Tahmin
Rüzgar doğudan 10 kt
Görüş mesafesi: 8000 m

TAF: GABS 221128Z 2212/2318 080010KT 8000 NSC

4.000'den fazla havaalanı için hava durumu gözlemleri ve tahminleri (METAR ve TAF raporları).

Kullanılabilir istasyonlar harita üzerinde sarı ve kırmızı noktalarla gösterilir.

İstasyonun adını görmek için fareyi noktanın üzerinde gezdirin.

Sonrasında hava gözlem ve tahminlerini görmek için tıklayın.

Haritayı değiştirmek için: yaklaştırmak için siyah artı işaretli yeşil düğmeye ve uzaklaştırmak için de eksi işaretli düğmeye hızla tıklayın; bitişik haritalar için yeşil okları kullanın.


METAR-TAF: